Time;durP1;ratioP1;P1;durP2;ratioP2;P2;SDS_P1;SDS_P2;PMS_P1;PMS_P2;Temp;Humidity;BMP_temperature;BMP_pressure;BME280_temperature;BME280_humidity;BME280_pressure;Samples;Min_cycle;Max_cycle;Signal;HPM_P1;HPM_P2
2020/12/09 00:07:37;;;;;;;29.52;14.20;;;3.90;99.90;;;;;;6663336;89;20184;-77
2020/12/09 00:17:38;;;;;;;30.25;13.62;;;3.80;99.90;;;;;;6682204;88;20669;-77
2020/12/09 00:27:38;;;;;;;30.80;14.33;;;3.90;99.90;;;;;;6652239;89;20319;-77
2020/12/09 00:37:39;;;;;;;30.85;14.63;;;3.90;99.90;;;;;;6652514;89;20537;-77
2020/12/09 00:47:42;;;;;;;33.63;14.90;;;3.80;99.90;;;;;;6666716;88;20779;-76
2020/12/09 00:57:43;;;;;;;33.15;15.70;;;3.90;99.90;;;;;;6655011;89;20203;-77
2020/12/09 01:07:44;;;;;;;32.65;14.60;;;3.80;99.90;;;;;;6651658;89;20254;-77
2020/12/09 01:17:45;;;;;;;31.67;15.15;;;3.80;99.90;;;;;;6664693;89;20195;-77
2020/12/09 01:27:46;;;;;;;30.02;14.68;;;3.90;99.90;;;;;;6654918;89;20180;-76
2020/12/09 01:37:47;;;;;;;27.50;14.32;;;3.90;99.90;;;;;;6663161;88;20707;-78
2020/12/09 01:47:50;;;;;;;28.48;14.40;;;3.90;99.90;;;;;;6658415;89;20318;-78
2020/12/09 01:57:50;;;;;;;28.60;13.40;;;3.80;99.90;;;;;;6664956;89;20268;-77
2020/12/09 02:07:51;;;;;;;28.17;14.32;;;3.80;99.90;;;;;;6658831;88;20361;-76
2020/12/09 02:17:51;;;;;;;27.98;14.93;;;3.80;99.90;;;;;;6649163;89;20212;-75
2020/12/09 02:27:52;;;;;;;33.22;15.70;;;3.80;99.90;;;;;;6648384;89;20211;-76
2020/12/09 02:37:53;;;;;;;28.70;13.62;;;3.70;99.90;;;;;;6643322;89;20279;-76
2020/12/09 02:47:54;;;;;;;26.85;13.45;;;3.70;99.90;;;;;;6683146;88;20903;-76
2020/12/09 02:57:54;;;;;;;31.42;13.98;;;3.60;99.90;;;;;;6672360;88;20181;-77
2020/12/09 03:07:55;;;;;;;32.88;14.87;;;3.40;99.90;;;;;;6653588;89;20239;-76
2020/12/09 03:17:55;;;;;;;31.70;15.13;;;3.20;99.90;;;;;;6684481;77;20219;-72
2020/12/09 03:27:56;;;;;;;35.95;17.25;;;3.20;99.90;;;;;;6727552;88;20632;-72
2020/12/09 03:37:56;;;;;;;37.92;17.67;;;3.20;99.90;;;;;;6711517;88;20273;-72
2020/12/09 03:47:57;;;;;;;36.83;16.55;;;3.10;99.90;;;;;;6711554;88;20186;-72
2020/12/09 03:58:00;;;;;;;36.83;16.15;;;3.10;99.90;;;;;;6709507;88;20206;-73
2020/12/09 04:08:01;;;;;;;33.58;16.05;;;3.10;99.90;;;;;;6708633;88;20577;-72
2020/12/09 04:18:01;;;;;;;34.80;16.25;;;3.10;99.90;;;;;;6709454;88;20323;-73
2020/12/09 04:28:02;;;;;;;34.50;15.70;;;3.20;99.90;;;;;;6715859;88;20725;-72
2020/12/09 04:38:03;;;;;;;37.60;16.75;;;3.00;99.90;;;;;;6714347;88;20213;-73
2020/12/09 04:48:06;;;;;;;38.60;17.00;;;3.10;99.90;;;;;;6716542;88;20361;-73
2020/12/09 04:58:18;;;;;;;37.88;17.00;;;3.00;99.90;;;;;;6709757;88;20216;-72
2020/12/09 05:08:21;;;;;;;34.53;16.42;;;3.20;99.90;;;;;;6705292;88;20316;-72
2020/12/09 05:18:34;;;;;;;37.50;17.17;;;3.10;99.90;;;;;;6710875;88;20210;-72
2020/12/09 05:28:34;;;;;;;35.83;16.12;;;3.00;99.90;;;;;;6714040;88;20984;-72
2020/12/09 05:38:35;;;;;;;35.50;15.73;;;3.00;99.90;;;;;;6710895;88;20198;-73
2020/12/09 05:48:36;;;;;;;32.40;15.40;;;3.00;99.90;;;;;;6712856;88;20187;-72
2020/12/09 05:58:42;;;;;;;32.33;14.32;;;3.00;99.90;;;;;;6710348;88;20189;-72
2020/12/09 06:08:45;;;;;;;35.77;15.87;;;3.00;99.90;;;;;;6712833;88;20212;-72
2020/12/09 06:18:54;;;;;;;38.25;16.70;;;3.10;99.90;;;;;;6714901;88;20211;-72
2020/12/09 06:28:54;;;;;;;41.15;17.30;;;3.10;99.90;;;;;;6710509;88;20243;-72
2020/12/09 06:39:17;;;;;;;37.25;16.58;;;3.00;99.90;;;;;;6713485;88;20849;-73
2020/12/09 06:49:29;;;;;;;39.42;16.80;;;3.10;99.90;;;;;;6715160;88;20502;-73
2020/12/09 06:59:30;;;;;;;40.90;17.62;;;3.10;99.90;;;;;;6712465;88;20199;-72
2020/12/09 07:09:34;;;;;;;41.90;18.90;;;3.10;99.90;;;;;;6714636;88;20215;-72
2020/12/09 07:19:35;;;;;;;38.72;17.12;;;3.10;99.90;;;;;;6718456;88;20228;-73
2020/12/09 07:29:44;;;;;;;43.05;16.85;;;3.10;99.90;;;;;;6727676;88;20189;-72
2020/12/09 07:39:48;;;;;;;40.58;17.55;;;3.10;99.90;;;;;;6722078;88;20215;-73
2020/12/09 07:49:54;;;;;;;40.63;17.90;;;3.00;99.90;;;;;;6712823;88;20202;-73
2020/12/09 07:59:57;;;;;;;40.27;16.80;;;3.10;99.90;;;;;;6720587;88;20393;-72
2020/12/09 08:10:11;;;;;;;34.20;15.60;;;3.20;99.90;;;;;;6715827;88;20296;-73
2020/12/09 08:20:14;;;;;;;36.65;15.90;;;3.30;99.90;;;;;;6721984;88;20193;-72
2020/12/09 08:30:25;;;;;;;33.30;16.10;;;3.30;99.90;;;;;;6718597;88;20202;-73
2020/12/09 08:40:26;;;;;;;32.78;15.60;;;3.30;99.90;;;;;;6727097;88;20215;-74
2020/12/09 08:50:26;;;;;;;33.83;15.32;;;3.40;99.90;;;;;;6715014;88;20193;-72
2020/12/09 09:00:27;;;;;;;34.65;15.68;;;3.50;99.90;;;;;;6726084;88;20608;-73
2020/12/09 09:10:27;;;;;;;31.20;14.48;;;3.60;99.90;;;;;;6718600;88;20213;-73
2020/12/09 09:21:09;;;;;;;34.17;14.57;;;3.70;99.90;;;;;;6727775;77;20212;-78
2020/12/09 09:31:10;;;;;;;32.25;15.43;;;3.70;99.90;;;;;;6716794;88;20278;-78
2020/12/09 09:41:10;;;;;;;30.48;14.05;;;3.80;99.90;;;;;;6714469;88;20298;-78
2020/12/09 09:51:11;;;;;;;32.67;13.88;;;3.90;99.90;;;;;;6674887;89;20200;-77
2020/12/09 10:01:14;;;;;;;31.58;14.23;;;4.10;99.90;;;;;;6669734;88;20216;-78
2020/12/09 10:11:16;;;;;;;28.48;12.98;;;4.90;99.90;;;;;;6668291;89;20196;-77
2020/12/09 10:21:28;;;;;;;27.45;13.00;;;5.80;99.90;;;;;;6665881;89;20320;-77
2020/12/09 10:31:33;;;;;;;26.87;13.30;;;6.10;99.90;;;;;;6716951;88;20176;-77
2020/12/09 10:41:34;;;;;;;28.63;13.53;;;5.70;99.90;;;;;;6668182;89;20195;-76
2020/12/09 10:51:35;;;;;;;27.58;12.93;;;5.70;99.90;;;;;;6669268;89;20278;-77
2020/12/09 11:01:35;;;;;;;30.92;13.68;;;5.90;99.90;;;;;;6672103;89;20195;-77
2020/12/09 11:11:37;;;;;;;28.98;14.05;;;5.80;99.90;;;;;;6669960;89;20742;-77
2020/12/09 11:21:37;;;;;;;28.70;13.57;;;5.60;99.90;;;;;;6673540;89;20657;-77
2020/12/09 11:31:38;;;;;;;31.42;15.10;;;5.60;99.90;;;;;;6676283;89;20175;-77
2020/12/09 11:41:39;;;;;;;30.30;13.45;;;5.90;99.90;;;;;;6680526;89;20246;-77
2020/12/09 11:51:39;;;;;;;25.17;12.13;;;5.80;99.90;;;;;;6735503;88;20420;-77
2020/12/09 12:01:40;;;;;;;20.23;9.63;;;6.80;99.90;;;;;;6690734;88;20244;-77
2020/12/09 12:11:41;;;;;;;18.62;9.48;;;7.20;99.90;;;;;;6682461;88;20829;-77
2020/12/09 12:21:41;;;;;;;17.12;9.02;;;7.00;99.90;;;;;;6670673;89;20274;-77
2020/12/09 12:31:42;;;;;;;18.25;9.10;;;7.30;99.90;;;;;;6682100;88;20679;-76
2020/12/09 12:41:44;;;;;;;16.35;7.93;;;8.60;99.90;;;;;;6720461;88;20217;-76
2020/12/09 12:51:44;;;;;;;21.15;10.18;;;9.30;99.90;;;;;;6716680;88;20216;-79
2020/12/09 13:01:45;;;;;;;17.50;9.52;;;10.00;99.90;;;;;;6720788;88;20203;-76
2020/12/09 13:11:46;;;;;;;15.57;9.25;;;11.40;98.80;;;;;;6709882;88;20207;-78
2020/12/09 13:21:47;;;;;;;16.02;9.45;;;11.60;98.40;;;;;;6727322;88;20263;-76
2020/12/09 13:31:51;;;;;;;15.88;8.75;;;11.00;98.90;;;;;;6738295;88;20209;-76
2020/12/09 13:41:51;;;;;;;17.62;9.20;;;8.90;99.90;;;;;;6737878;88;20205;-76
2020/12/09 13:51:52;;;;;;;14.57;8.48;;;10.00;99.90;;;;;;6736060;88;20197;-78
2020/12/09 14:01:53;;;;;;;15.80;8.88;;;9.60;99.90;;;;;;6711343;88;20640;-76
2020/12/09 14:11:53;;;;;;;13.48;7.57;;;9.60;99.90;;;;;;6721864;88;20215;-76
2020/12/09 14:21:54;;;;;;;14.43;7.72;;;8.50;99.90;;;;;;6734508;88;20208;-76
2020/12/09 14:31:55;;;;;;;17.02;8.48;;;8.90;99.90;;;;;;6716616;88;20328;-76
2020/12/09 14:41:55;;;;;;;15.35;7.40;;;7.90;99.90;;;;;;6720400;88;20621;-76
2020/12/09 14:51:57;;;;;;;15.07;7.50;;;7.40;99.90;;;;;;6717184;88;20225;-76
2020/12/09 15:01:58;;;;;;;16.10;8.02;;;6.30;99.90;;;;;;6722518;88;20209;-76
2020/12/09 15:11:58;;;;;;;16.52;7.12;;;5.90;99.90;;;;;;6677315;88;20675;-79
2020/12/09 15:22:00;;;;;;;14.57;7.35;;;5.30;99.90;;;;;;6708933;88;20237;-76
2020/12/09 15:32:02;;;;;;;14.75;7.00;;;5.00;99.90;;;;;;6738275;88;20242;-76
2020/12/09 15:42:03;;;;;;;16.17;7.00;;;4.70;99.90;;;;;;6722673;88;20255;-76
2020/12/09 15:52:06;;;;;;;12.85;5.85;;;4.20;99.90;;;;;;6735120;88;20319;-77
2020/12/09 16:02:07;;;;;;;15.88;6.82;;;3.60;99.90;;;;;;6720884;88;20221;-76
2020/12/09 16:12:07;;;;;;;13.93;5.95;;;3.20;99.90;;;;;;6718335;88;20213;-77
2020/12/09 16:22:08;;;;;;;14.40;6.53;;;3.10;99.90;;;;;;6671773;88;20199;-77
2020/12/09 16:32:09;;;;;;;16.30;7.40;;;2.90;99.90;;;;;;6696891;88;20196;-78
2020/12/09 16:42:11;;;;;;;18.00;7.35;;;2.80;99.90;;;;;;6733757;88;20227;-77
2020/12/09 16:52:11;;;;;;;15.82;7.62;;;2.60;99.90;;;;;;6740077;88;20237;-77
2020/12/09 17:02:13;;;;;;;15.30;7.17;;;2.40;99.90;;;;;;6694411;88;20238;-77
2020/12/09 17:12:14;;;;;;;17.15;7.43;;;2.40;99.90;;;;;;6725925;88;20547;-77
2020/12/09 17:22:15;;;;;;;17.75;7.75;;;2.10;99.90;;;;;;6719277;88;20224;-77
2020/12/09 17:32:16;;;;;;;19.48;8.40;;;1.90;99.90;;;;;;6695895;88;20692;-76
2020/12/09 17:42:16;;;;;;;20.23;8.25;;;1.80;99.90;;;;;;6715822;88;20239;-77
2020/12/09 17:52:19;;;;;;;20.55;8.20;;;1.50;99.90;;;;;;6722010;88;20190;-77
2020/12/09 18:02:20;;;;;;;21.25;8.95;;;1.40;99.90;;;;;;6712786;88;20687;-78
2020/12/09 18:12:21;;;;;;;23.15;9.48;;;1.30;99.90;;;;;;6700421;88;20203;-78
2020/12/09 18:22:22;;;;;;;21.92;8.48;;;1.30;99.90;;;;;;6698951;88;20182;-78
2020/12/09 18:32:27;;;;;;;20.65;8.80;;;1.10;99.90;;;;;;6720516;88;20249;-77
2020/12/09 18:42:27;;;;;;;21.45;9.00;;;1.00;99.90;;;;;;6701407;88;20798;-77
2020/12/09 18:52:28;;;;;;;22.48;9.38;;;1.00;99.90;;;;;;6673443;89;20238;-77
2020/12/09 19:02:29;;;;;;;20.70;9.00;;;0.90;99.90;;;;;;6722509;88;20762;-77
2020/12/09 19:12:30;;;;;;;21.00;8.00;;;0.80;99.90;;;;;;6740702;88;21071;-77
2020/12/09 19:22:31;;;;;;;22.80;8.70;;;0.80;99.90;;;;;;6742685;88;20280;-77
2020/12/09 19:32:34;;;;;;;23.65;9.27;;;0.80;99.90;;;;;;6740193;88;20211;-77
2020/12/09 19:42:39;;;;;;;20.25;8.48;;;0.70;99.90;;;;;;6739515;88;20733;-76
2020/12/09 19:52:39;;;;;;;19.92;8.70;;;0.60;99.90;;;;;;6717064;88;20204;-77
2020/12/09 20:02:40;;;;;;;21.23;8.60;;;0.60;99.90;;;;;;6739140;88;20217;-76
2020/12/09 20:12:41;;;;;;;19.52;8.60;;;0.40;99.90;;;;;;6728508;88;20316;-75
2020/12/09 20:22:43;;;;;;;26.30;10.13;;;0.10;99.90;;;;;;6720187;88;20189;-75
2020/12/09 20:32:44;;;;;;;26.02;10.13;;;0.00;99.90;;;;;;6723542;88;20204;-75
2020/12/09 20:42:44;;;;;;;24.83;10.45;;;0.10;99.90;;;;;;6703334;88;20211;-76
2020/12/09 20:52:45;;;;;;;25.25;10.07;;;0.00;99.90;;;;;;6727677;88;20528;-76
2020/12/09 21:02:46;;;;;;;27.05;11.35;;;0.00;99.90;;;;;;6719233;88;20674;-76
2020/12/09 21:12:46;;;;;;;28.00;13.05;;;0.00;99.90;;;;;;6732164;88;20318;-76
2020/12/09 21:22:47;;;;;;;22.95;9.18;;;0.00;99.90;;;;;;6731409;88;20239;-76
2020/12/09 21:32:47;;;;;;;23.20;9.52;;;-0.20;99.90;;;;;;6721187;88;20490;-76
2020/12/09 21:42:50;;;;;;;22.50;9.00;;;-0.30;99.90;;;;;;6727470;88;20713;-77
2020/12/09 21:53:11;;;;;;;26.75;12.48;;;-0.20;99.90;;;;;;6738969;77;20185;-75
2020/12/09 22:03:12;;;;;;;22.98;10.10;;;-0.30;99.90;;;;;;6738175;88;20218;-76
2020/12/09 22:13:12;;;;;;;22.65;9.77;;;-0.10;99.90;;;;;;6731620;88;20351;-76
2020/12/09 22:23:13;;;;;;;26.83;11.25;;;-0.20;99.90;;;;;;6724617;88;20185;-77
2020/12/09 22:33:13;;;;;;;24.30;9.93;;;-0.20;99.90;;;;;;6725261;88;20178;-78
2020/12/09 22:43:14;;;;;;;23.10;9.88;;;-0.30;99.90;;;;;;6736953;88;20188;-77
2020/12/09 22:53:14;;;;;;;25.77;10.48;;;-0.20;99.90;;;;;;6727658;88;20188;-77
2020/12/09 23:03:15;;;;;;;27.48;10.75;;;-0.30;99.90;;;;;;6698893;88;20195;-77
2020/12/09 23:13:15;;;;;;;25.92;10.98;;;-0.30;99.90;;;;;;6718269;88;20216;-77
2020/12/09 23:23:16;;;;;;;25.00;10.38;;;-0.40;99.90;;;;;;6739701;88;20185;-78
2020/12/09 23:33:16;;;;;;;25.00;10.02;;;-0.50;99.90;;;;;;6741083;88;20623;-77
2020/12/09 23:43:17;;;;;;;27.15;9.82;;;-0.50;99.90;;;;;;6730192;88;20241;-78
2020/12/09 23:53:19;;;;;;;23.42;9.50;;;-0.50;99.90;;;;;;6739574;88;20194;-78
